sensor_id;sensor_type;location;lat;lon;timestamp;P1;durP1;ratioP1;P2;durP2;ratioP2
67757;SDS011;54562;47.620;18.786;2023-05-09T00:01:40;7.10;;;3.80;;
67757;SDS011;54562;47.620;18.786;2023-05-09T00:04:47;7.00;;;3.60;;
67757;SDS011;54562;47.620;18.786;2023-05-09T00:07:54;6.80;;;3.50;;
67757;SDS011;54562;47.620;18.786;2023-05-09T00:11:01;5.80;;;3.30;;
67757;SDS011;54562;47.620;18.786;2023-05-09T00:14:07;7.00;;;3.90;;
67757;SDS011;54562;47.620;18.786;2023-05-09T00:17:14;6.50;;;3.50;;
67757;SDS011;54562;47.620;18.786;2023-05-09T00:20:20;6.20;;;3.50;;
67757;SDS011;54562;47.620;18.786;2023-05-09T00:23:27;7.80;;;3.50;;
67757;SDS011;54562;47.620;18.786;2023-05-09T00:26:33;7.80;;;3.90;;
67757;SDS011;54562;47.620;18.786;2023-05-09T00:29:40;7.40;;;4.10;;
67757;SDS011;54562;47.620;18.786;2023-05-09T00:32:46;7.40;;;3.80;;
67757;SDS011;54562;47.620;18.786;2023-05-09T00:35:52;5.90;;;3.00;;
67757;SDS011;54562;47.620;18.786;2023-05-09T00:38:58;7.20;;;3.70;;
67757;SDS011;54562;47.620;18.786;2023-05-09T00:42:05;7.00;;;3.90;;
67757;SDS011;54562;47.620;18.786;2023-05-09T00:45:11;6.70;;;3.80;;
67757;SDS011;54562;47.620;18.786;2023-05-09T00:48:18;7.40;;;4.00;;
67757;SDS011;54562;47.620;18.786;2023-05-09T00:51:24;6.10;;;3.80;;
67757;SDS011;54562;47.620;18.786;2023-05-09T00:54:30;6.60;;;3.80;;
67757;SDS011;54562;47.620;18.786;2023-05-09T00:57:36;6.30;;;3.80;;
67757;SDS011;54562;47.620;18.786;2023-05-09T01:00:42;6.70;;;3.90;;
67757;SDS011;54562;47.620;18.786;2023-05-09T01:03:48;7.50;;;3.60;;
67757;SDS011;54562;47.620;18.786;2023-05-09T01:06:59;7.00;;;3.90;;
67757;SDS011;54562;47.620;18.786;2023-05-09T01:10:14;7.70;;;4.00;;
67757;SDS011;54562;47.620;18.786;2023-05-09T01:13:25;6.60;;;3.80;;
67757;SDS011;54562;47.620;18.786;2023-05-09T01:16:37;7.40;;;4.20;;
67757;SDS011;54562;47.620;18.786;2023-05-09T01:19:53;7.10;;;3.60;;
67757;SDS011;54562;47.620;18.786;2023-05-09T01:23:06;7.00;;;3.60;;
67757;SDS011;54562;47.620;18.786;2023-05-09T01:26:19;7.10;;;3.90;;
67757;SDS011;54562;47.620;18.786;2023-05-09T01:29:35;7.90;;;3.90;;
67757;SDS011;54562;47.620;18.786;2023-05-09T01:32:43;6.80;;;3.70;;
67757;SDS011;54562;47.620;18.786;2023-05-09T01:35:55;7.80;;;4.30;;
67757;SDS011;54562;47.620;18.786;2023-05-09T01:39:03;7.50;;;3.90;;
67757;SDS011;54562;47.620;18.786;2023-05-09T01:42:11;7.50;;;4.40;;
67757;SDS011;54562;47.620;18.786;2023-05-09T01:45:18;9.50;;;4.10;;
67757;SDS011;54562;47.620;18.786;2023-05-09T01:48:24;7.60;;;4.20;;
67757;SDS011;54562;47.620;18.786;2023-05-09T01:51:32;9.00;;;3.90;;
67757;SDS011;54562;47.620;18.786;2023-05-09T01:54:39;6.60;;;3.80;;
67757;SDS011;54562;47.620;18.786;2023-05-09T01:57:46;7.30;;;4.00;;
67757;SDS011;54562;47.620;18.786;2023-05-09T02:00:53;8.40;;;4.30;;
67757;SDS011;54562;47.620;18.786;2023-05-09T02:04:00;7.60;;;4.10;;
67757;SDS011;54562;47.620;18.786;2023-05-09T02:07:08;9.80;;;4.50;;
67757;SDS011;54562;47.620;18.786;2023-05-09T02:10:15;7.60;;;4.00;;
67757;SDS011;54562;47.620;18.786;2023-05-09T02:13:22;8.60;;;4.40;;
67757;SDS011;54562;47.620;18.786;2023-05-09T02:16:31;9.00;;;4.20;;
67757;SDS011;54562;47.620;18.786;2023-05-09T02:19:37;7.10;;;4.10;;
67757;SDS011;54562;47.620;18.786;2023-05-09T02:22:43;9.00;;;3.90;;
67757;SDS011;54562;47.620;18.786;2023-05-09T02:25:50;8.00;;;4.30;;
67757;SDS011;54562;47.620;18.786;2023-05-09T02:28:57;8.50;;;4.40;;
67757;SDS011;54562;47.620;18.786;2023-05-09T02:32:04;8.30;;;4.60;;
67757;SDS011;54562;47.620;18.786;2023-05-09T02:35:13;8.90;;;4.60;;
67757;SDS011;54562;47.620;18.786;2023-05-09T02:38:20;7.30;;;4.00;;
67757;SDS011;54562;47.620;18.786;2023-05-09T02:41:27;7.50;;;3.90;;
67757;SDS011;54562;47.620;18.786;2023-05-09T02:44:33;7.70;;;4.50;;
67757;SDS011;54562;47.620;18.786;2023-05-09T02:47:41;7.10;;;3.90;;
67757;SDS011;54562;47.620;18.786;2023-05-09T02:50:47;8.20;;;4.30;;
67757;SDS011;54562;47.620;18.786;2023-05-09T02:53:53;8.30;;;4.30;;
67757;SDS011;54562;47.620;18.786;2023-05-09T02:57:00;9.30;;;4.70;;
67757;SDS011;54562;47.620;18.786;2023-05-09T03:00:07;8.70;;;4.70;;
67757;SDS011;54562;47.620;18.786;2023-05-09T03:03:15;7.90;;;4.00;;
67757;SDS011;54562;47.620;18.786;2023-05-09T03:06:21;8.60;;;4.40;;
67757;SDS011;54562;47.620;18.786;2023-05-09T03:09:27;7.80;;;4.10;;
67757;SDS011;54562;47.620;18.786;2023-05-09T03:12:34;9.80;;;4.40;;
67757;SDS011;54562;47.620;18.786;2023-05-09T03:15:41;7.90;;;4.40;;
67757;SDS011;54562;47.620;18.786;2023-05-09T03:18:47;10.70;;;4.10;;
67757;SDS011;54562;47.620;18.786;2023-05-09T03:21:53;8.60;;;4.60;;
67757;SDS011;54562;47.620;18.786;2023-05-09T03:25:00;7.90;;;4.20;;
67757;SDS011;54562;47.620;18.786;2023-05-09T03:28:06;7.50;;;4.00;;
67757;SDS011;54562;47.620;18.786;2023-05-09T03:31:12;7.70;;;4.10;;
67757;SDS011;54562;47.620;18.786;2023-05-09T03:34:18;7.90;;;4.30;;
67757;SDS011;54562;47.620;18.786;2023-05-09T03:37:25;9.20;;;4.70;;
67757;SDS011;54562;47.620;18.786;2023-05-09T03:40:32;7.90;;;4.00;;
67757;SDS011;54562;47.620;18.786;2023-05-09T03:43:38;7.60;;;4.40;;
67757;SDS011;54562;47.620;18.786;2023-05-09T03:46:44;9.00;;;4.20;;
67757;SDS011;54562;47.620;18.786;2023-05-09T03:49:50;9.30;;;4.90;;
67757;SDS011;54562;47.620;18.786;2023-05-09T03:52:57;9.10;;;4.50;;
67757;SDS011;54562;47.620;18.786;2023-05-09T03:56:03;9.50;;;4.40;;
67757;SDS011;54562;47.620;18.786;2023-05-09T03:59:10;8.60;;;4.40;;
67757;SDS011;54562;47.620;18.786;2023-05-09T04:02:16;7.60;;;4.40;;
67757;SDS011;54562;47.620;18.786;2023-05-09T04:05:23;8.80;;;4.90;;
67757;SDS011;54562;47.620;18.786;2023-05-09T04:08:30;9.20;;;4.70;;
67757;SDS011;54562;47.620;18.786;2023-05-09T04:11:37;8.50;;;4.20;;
67757;SDS011;54562;47.620;18.786;2023-05-09T04:14:44;7.90;;;4.50;;
67757;SDS011;54562;47.620;18.786;2023-05-09T04:17:51;9.10;;;4.50;;
67757;SDS011;54562;47.620;18.786;2023-05-09T04:20:57;10.30;;;4.90;;
67757;SDS011;54562;47.620;18.786;2023-05-09T04:24:03;9.90;;;4.70;;
67757;SDS011;54562;47.620;18.786;2023-05-09T04:27:10;9.10;;;4.50;;
67757;SDS011;54562;47.620;18.786;2023-05-09T04:30:17;8.30;;;4.30;;
67757;SDS011;54562;47.620;18.786;2023-05-09T04:33:23;7.00;;;4.00;;
67757;SDS011;54562;47.620;18.786;2023-05-09T04:36:31;7.90;;;4.20;;
67757;SDS011;54562;47.620;18.786;2023-05-09T04:39:37;7.60;;;3.90;;
67757;SDS011;54562;47.620;18.786;2023-05-09T04:42:44;10.10;;;4.20;;
67757;SDS011;54562;47.620;18.786;2023-05-09T04:45:50;7.30;;;4.00;;
67757;SDS011;54562;47.620;18.786;2023-05-09T04:48:56;7.00;;;4.20;;
67757;SDS011;54562;47.620;18.786;2023-05-09T04:52:03;8.20;;;4.30;;
67757;SDS011;54562;47.620;18.786;2023-05-09T04:55:10;9.10;;;4.50;;
67757;SDS011;54562;47.620;18.786;2023-05-09T04:58:18;7.20;;;4.10;;
67757;SDS011;54562;47.620;18.786;2023-05-09T05:01:24;7.80;;;3.70;;
67757;SDS011;54562;47.620;18.786;2023-05-09T05:04:30;8.20;;;3.90;;
67757;SDS011;54562;47.620;18.786;2023-05-09T05:07:36;9.80;;;4.40;;
67757;SDS011;54562;47.620;18.786;2023-05-09T05:10:43;8.20;;;4.10;;
67757;SDS011;54562;47.620;18.786;2023-05-09T05:13:49;7.40;;;3.90;;
67757;SDS011;54562;47.620;18.786;2023-05-09T05:16:56;6.90;;;3.70;;
67757;SDS011;54562;47.620;18.786;2023-05-09T05:20:02;7.60;;;3.80;;
67757;SDS011;54562;47.620;18.786;2023-05-09T05:26:17;7.50;;;3.60;;
67757;SDS011;54562;47.620;18.786;2023-05-09T05:29:24;7.80;;;3.70;;
67757;SDS011;54562;47.620;18.786;2023-05-09T05:32:30;8.00;;;3.60;;
67757;SDS011;54562;47.620;18.786;2023-05-09T05:35:37;6.50;;;3.60;;
67757;SDS011;54562;47.620;18.786;2023-05-09T05:38:43;6.80;;;3.40;;
67757;SDS011;54562;47.620;18.786;2023-05-09T05:41:49;6.60;;;3.50;;
67757;SDS011;54562;47.620;18.786;2023-05-09T05:44:55;6.80;;;3.20;;
67757;SDS011;54562;47.620;18.786;2023-05-09T05:48:06;6.20;;;3.10;;
67757;SDS011;54562;47.620;18.786;2023-05-09T05:51:12;7.10;;;3.40;;
67757;SDS011;54562;47.620;18.786;2023-05-09T05:54:19;6.80;;;3.10;;
67757;SDS011;54562;47.620;18.786;2023-05-09T05:57:26;7.00;;;3.30;;
67757;SDS011;54562;47.620;18.786;2023-05-09T06:00:32;5.70;;;3.10;;
67757;SDS011;54562;47.620;18.786;2023-05-09T06:03:38;5.60;;;2.90;;
67757;SDS011;54562;47.620;18.786;2023-05-09T06:06:45;5.90;;;2.90;;
67757;SDS011;54562;47.620;18.786;2023-05-09T06:09:51;6.30;;;2.90;;
67757;SDS011;54562;47.620;18.786;2023-05-09T06:12:57;5.90;;;2.90;;
67757;SDS011;54562;47.620;18.786;2023-05-09T06:16:04;6.30;;;2.70;;
67757;SDS011;54562;47.620;18.786;2023-05-09T06:19:22;5.70;;;2.90;;
67757;SDS011;54562;47.620;18.786;2023-05-09T06:22:28;5.40;;;2.70;;
67757;SDS011;54562;47.620;18.786;2023-05-09T06:25:35;5.40;;;2.60;;
67757;SDS011;54562;47.620;18.786;2023-05-09T06:28:41;6.10;;;2.60;;
67757;SDS011;54562;47.620;18.786;2023-05-09T06:31:48;4.80;;;2.30;;
67757;SDS011;54562;47.620;18.786;2023-05-09T06:34:54;4.70;;;2.20;;
67757;SDS011;54562;47.620;18.786;2023-05-09T06:38:00;6.20;;;2.60;;
67757;SDS011;54562;47.620;18.786;2023-05-09T06:41:07;5.60;;;2.10;;
67757;SDS011;54562;47.620;18.786;2023-05-09T06:44:14;5.20;;;2.40;;
67757;SDS011;54562;47.620;18.786;2023-05-09T06:47:20;4.80;;;2.40;;
67757;SDS011;54562;47.620;18.786;2023-05-09T06:50:27;6.40;;;2.30;;
67757;SDS011;54562;47.620;18.786;2023-05-09T06:53:35;5.40;;;2.50;;
67757;SDS011;54562;47.620;18.786;2023-05-09T06:56:41;6.40;;;2.40;;
67757;SDS011;54562;47.620;18.786;2023-05-09T06:59:47;5.40;;;2.50;;
67757;SDS011;54562;47.620;18.786;2023-05-09T07:02:54;4.80;;;2.30;;
67757;SDS011;54562;47.620;18.786;2023-05-09T07:06:00;5.20;;;2.60;;
67757;SDS011;54562;47.620;18.786;2023-05-09T07:09:07;4.80;;;2.50;;
67757;SDS011;54562;47.620;18.786;2023-05-09T07:12:13;5.60;;;2.70;;
67757;SDS011;54562;47.620;18.786;2023-05-09T07:15:19;6.00;;;2.50;;
67757;SDS011;54562;47.620;18.786;2023-05-09T07:18:43;6.40;;;2.90;;
67757;SDS011;54562;47.620;18.786;2023-05-09T07:21:50;6.60;;;2.80;;
67757;SDS011;54562;47.620;18.786;2023-05-09T07:24:56;7.00;;;3.00;;
67757;SDS011;54562;47.620;18.786;2023-05-09T07:28:03;7.40;;;2.90;;
67757;SDS011;54562;47.620;18.786;2023-05-09T07:31:09;7.50;;;3.00;;
67757;SDS011;54562;47.620;18.786;2023-05-09T07:34:16;6.10;;;2.90;;
67757;SDS011;54562;47.620;18.786;2023-05-09T07:37:22;6.30;;;3.00;;
67757;SDS011;54562;47.620;18.786;2023-05-09T07:40:29;7.00;;;3.10;;
67757;SDS011;54562;47.620;18.786;2023-05-09T07:43:35;8.40;;;3.20;;
67757;SDS011;54562;47.620;18.786;2023-05-09T07:46:41;7.20;;;3.00;;
67757;SDS011;54562;47.620;18.786;2023-05-09T07:49:47;5.70;;;2.80;;
67757;SDS011;54562;47.620;18.786;2023-05-09T07:52:54;6.80;;;2.90;;
67757;SDS011;54562;47.620;18.786;2023-05-09T07:56:02;7.00;;;3.00;;
67757;SDS011;54562;47.620;18.786;2023-05-09T07:59:11;6.40;;;3.00;;
67757;SDS011;54562;47.620;18.786;2023-05-09T08:02:17;6.60;;;2.80;;
67757;SDS011;54562;47.620;18.786;2023-05-09T08:05:25;6.30;;;3.00;;
67757;SDS011;54562;47.620;18.786;2023-05-09T08:08:31;6.00;;;2.60;;
67757;SDS011;54562;47.620;18.786;2023-05-09T08:11:41;7.00;;;2.90;;
67757;SDS011;54562;47.620;18.786;2023-05-09T08:14:47;7.40;;;2.80;;
67757;SDS011;54562;47.620;18.786;2023-05-09T08:17:54;5.90;;;2.80;;
67757;SDS011;54562;47.620;18.786;2023-05-09T08:21:00;6.60;;;2.80;;
67757;SDS011;54562;47.620;18.786;2023-05-09T08:24:07;7.50;;;2.60;;
67757;SDS011;54562;47.620;18.786;2023-05-09T08:27:13;6.10;;;2.40;;
67757;SDS011;54562;47.620;18.786;2023-05-09T08:30:19;7.40;;;2.30;;
67757;SDS011;54562;47.620;18.786;2023-05-09T08:33:26;4.20;;;2.10;;
67757;SDS011;54562;47.620;18.786;2023-05-09T08:36:32;4.60;;;2.20;;
67757;SDS011;54562;47.620;18.786;2023-05-09T08:39:39;4.20;;;1.90;;
67757;SDS011;54562;47.620;18.786;2023-05-09T08:42:45;4.10;;;2.00;;
67757;SDS011;54562;47.620;18.786;2023-05-09T08:45:53;4.70;;;2.20;;
67757;SDS011;54562;47.620;18.786;2023-05-09T08:49:02;6.10;;;1.90;;
67757;SDS011;54562;47.620;18.786;2023-05-09T08:52:10;6.40;;;2.20;;
67757;SDS011;54562;47.620;18.786;2023-05-09T08:55:16;6.10;;;1.90;;
67757;SDS011;54562;47.620;18.786;2023-05-09T08:58:23;4.20;;;1.70;;
67757;SDS011;54562;47.620;18.786;2023-05-09T09:01:29;7.00;;;2.10;;
67757;SDS011;54562;47.620;18.786;2023-05-09T09:04:38;6.10;;;1.90;;
67757;SDS011;54562;47.620;18.786;2023-05-09T09:07:47;6.80;;;2.10;;
67757;SDS011;54562;47.620;18.786;2023-05-09T09:10:54;5.30;;;2.00;;
67757;SDS011;54562;47.620;18.786;2023-05-09T09:14:01;4.70;;;2.10;;
67757;SDS011;54562;47.620;18.786;2023-05-09T09:17:14;5.10;;;2.00;;
67757;SDS011;54562;47.620;18.786;2023-05-09T09:20:22;4.40;;;1.80;;
67757;SDS011;54562;47.620;18.786;2023-05-09T09:23:29;4.50;;;1.90;;
67757;SDS011;54562;47.620;18.786;2023-05-09T09:26:36;7.60;;;2.00;;
67757;SDS011;54562;47.620;18.786;2023-05-09T09:29:51;5.30;;;1.90;;
67757;SDS011;54562;47.620;18.786;2023-05-09T09:32:58;6.10;;;2.10;;
67757;SDS011;54562;47.620;18.786;2023-05-09T09:36:05;5.40;;;1.90;;
67757;SDS011;54562;47.620;18.786;2023-05-09T09:39:12;4.20;;;1.90;;
67757;SDS011;54562;47.620;18.786;2023-05-09T09:42:19;3.90;;;1.80;;
67757;SDS011;54562;47.620;18.786;2023-05-09T09:45:26;5.30;;;1.90;;
67757;SDS011;54562;47.620;18.786;2023-05-09T09:48:33;5.40;;;1.90;;
67757;SDS011;54562;47.620;18.786;2023-05-09T09:51:40;4.60;;;1.70;;
67757;SDS011;54562;47.620;18.786;2023-05-09T09:54:47;5.70;;;1.70;;
67757;SDS011;54562;47.620;18.786;2023-05-09T09:57:53;6.10;;;1.80;;
67757;SDS011;54562;47.620;18.786;2023-05-09T10:01:06;4.10;;;1.60;;
67757;SDS011;54562;47.620;18.786;2023-05-09T10:04:15;5.50;;;1.80;;
67757;SDS011;54562;47.620;18.786;2023-05-09T10:07:22;3.90;;;1.60;;
67757;SDS011;54562;47.620;18.786;2023-05-09T10:10:29;4.50;;;1.60;;
67757;SDS011;54562;47.620;18.786;2023-05-09T10:13:36;3.70;;;1.60;;
67757;SDS011;54562;47.620;18.786;2023-05-09T10:16:42;4.80;;;1.80;;
67757;SDS011;54562;47.620;18.786;2023-05-09T10:19:49;4.70;;;1.90;;
67757;SDS011;54562;47.620;18.786;2023-05-09T10:22:56;3.80;;;1.70;;
67757;SDS011;54562;47.620;18.786;2023-05-09T10:26:06;5.70;;;1.70;;
67757;SDS011;54562;47.620;18.786;2023-05-09T10:29:17;4.00;;;1.50;;
67757;SDS011;54562;47.620;18.786;2023-05-09T10:32:29;3.70;;;1.60;;
67757;SDS011;54562;47.620;18.786;2023-05-09T10:35:45;5.70;;;1.60;;
67757;SDS011;54562;47.620;18.786;2023-05-09T10:38:52;3.50;;;1.40;;
67757;SDS011;54562;47.620;18.786;2023-05-09T10:41:59;3.20;;;1.40;;
67757;SDS011;54562;47.620;18.786;2023-05-09T10:45:08;4.60;;;1.60;;
67757;SDS011;54562;47.620;18.786;2023-05-09T10:48:16;3.90;;;1.70;;
67757;SDS011;54562;47.620;18.786;2023-05-09T10:51:22;3.50;;;1.50;;
67757;SDS011;54562;47.620;18.786;2023-05-09T10:54:29;8.40;;;1.70;;
67757;SDS011;54562;47.620;18.786;2023-05-09T10:57:36;4.10;;;1.80;;
67757;SDS011;54562;47.620;18.786;2023-05-09T11:00:44;4.60;;;1.80;;
67757;SDS011;54562;47.620;18.786;2023-05-09T11:03:54;3.70;;;1.70;;
67757;SDS011;54562;47.620;18.786;2023-05-09T11:07:02;4.60;;;1.70;;
67757;SDS011;54562;47.620;18.786;2023-05-09T11:10:09;3.90;;;1.80;;
67757;SDS011;54562;47.620;18.786;2023-05-09T11:13:21;4.10;;;1.60;;
67757;SDS011;54562;47.620;18.786;2023-05-09T11:16:28;3.90;;;1.60;;
67757;SDS011;54562;47.620;18.786;2023-05-09T11:19:35;3.70;;;1.70;;
67757;SDS011;54562;47.620;18.786;2023-05-09T11:22:54;3.40;;;1.70;;
67757;SDS011;54562;47.620;18.786;2023-05-09T11:26:05;3.80;;;1.60;;
67757;SDS011;54562;47.620;18.786;2023-05-09T11:29:12;4.10;;;1.60;;
67757;SDS011;54562;47.620;18.786;2023-05-09T11:32:19;5.70;;;1.80;;
67757;SDS011;54562;47.620;18.786;2023-05-09T11:35:26;2.90;;;1.40;;
67757;SDS011;54562;47.620;18.786;2023-05-09T11:38:40;4.10;;;1.60;;
67757;SDS011;54562;47.620;18.786;2023-05-09T11:41:47;3.40;;;1.60;;
67757;SDS011;54562;47.620;18.786;2023-05-09T11:44:54;3.20;;;1.50;;
67757;SDS011;54562;47.620;18.786;2023-05-09T11:48:01;2.80;;;1.40;;
67757;SDS011;54562;47.620;18.786;2023-05-09T11:51:17;4.00;;;1.80;;
67757;SDS011;54562;47.620;18.786;2023-05-09T11:54:23;2.90;;;1.40;;
67757;SDS011;54562;47.620;18.786;2023-05-09T11:57:30;3.90;;;1.80;;
67757;SDS011;54562;47.620;18.786;2023-05-09T12:00:36;2.90;;;1.30;;
67757;SDS011;54562;47.620;18.786;2023-05-09T12:03:48;3.90;;;1.50;;
67757;SDS011;54562;47.620;18.786;2023-05-09T12:06:57;3.60;;;1.70;;
67757;SDS011;54562;47.620;18.786;2023-05-09T12:10:05;3.60;;;1.50;;
67757;SDS011;54562;47.620;18.786;2023-05-09T12:13:13;3.50;;;1.50;;
67757;SDS011;54562;47.620;18.786;2023-05-09T12:16:20;3.10;;;1.40;;
67757;SDS011;54562;47.620;18.786;2023-05-09T12:19:27;7.20;;;1.80;;
67757;SDS011;54562;47.620;18.786;2023-05-09T12:22:33;9.60;;;1.80;;
67757;SDS011;54562;47.620;18.786;2023-05-09T12:25:40;4.20;;;1.60;;
67757;SDS011;54562;47.620;18.786;2023-05-09T12:28:52;5.80;;;1.70;;
67757;SDS011;54562;47.620;18.786;2023-05-09T12:31:59;3.80;;;1.70;;
67757;SDS011;54562;47.620;18.786;2023-05-09T12:35:07;5.00;;;1.80;;
67757;SDS011;54562;47.620;18.786;2023-05-09T12:38:14;3.30;;;1.60;;
67757;SDS011;54562;47.620;18.786;2023-05-09T12:41:25;3.90;;;1.60;;
67757;SDS011;54562;47.620;18.786;2023-05-09T12:44:43;4.20;;;1.70;;
67757;SDS011;54562;47.620;18.786;2023-05-09T12:47:53;3.50;;;1.60;;
67757;SDS011;54562;47.620;18.786;2023-05-09T12:51:02;4.70;;;1.70;;
67757;SDS011;54562;47.620;18.786;2023-05-09T12:54:09;4.80;;;1.70;;
67757;SDS011;54562;47.620;18.786;2023-05-09T12:57:23;3.90;;;1.70;;
67757;SDS011;54562;47.620;18.786;2023-05-09T13:00:41;3.40;;;1.60;;
67757;SDS011;54562;47.620;18.786;2023-05-09T13:03:51;3.60;;;1.50;;
67757;SDS011;54562;47.620;18.786;2023-05-09T13:07:06;4.00;;;1.70;;
67757;SDS011;54562;47.620;18.786;2023-05-09T13:10:14;3.40;;;1.70;;
67757;SDS011;54562;47.620;18.786;2023-05-09T13:13:24;3.50;;;1.60;;
67757;SDS011;54562;47.620;18.786;2023-05-09T13:16:32;4.60;;;1.70;;
67757;SDS011;54562;47.620;18.786;2023-05-09T13:19:38;3.70;;;1.60;;
67757;SDS011;54562;47.620;18.786;2023-05-09T13:22:45;4.50;;;1.70;;
67757;SDS011;54562;47.620;18.786;2023-05-09T13:25:52;5.00;;;2.00;;
67757;SDS011;54562;47.620;18.786;2023-05-09T13:28:58;3.90;;;1.70;;
67757;SDS011;54562;47.620;18.786;2023-05-09T13:32:05;3.90;;;1.60;;
67757;SDS011;54562;47.620;18.786;2023-05-09T13:35:13;4.80;;;1.80;;
67757;SDS011;54562;47.620;18.786;2023-05-09T13:38:20;6.00;;;2.00;;
67757;SDS011;54562;47.620;18.786;2023-05-09T13:41:27;4.00;;;1.70;;
67757;SDS011;54562;47.620;18.786;2023-05-09T13:44:37;4.40;;;1.80;;
67757;SDS011;54562;47.620;18.786;2023-05-09T13:47:44;4.90;;;1.90;;
67757;SDS011;54562;47.620;18.786;2023-05-09T13:50:50;5.00;;;1.80;;
67757;SDS011;54562;47.620;18.786;2023-05-09T13:53:56;4.70;;;1.70;;
67757;SDS011;54562;47.620;18.786;2023-05-09T13:57:05;5.40;;;1.80;;
67757;SDS011;54562;47.620;18.786;2023-05-09T14:00:12;4.50;;;1.50;;
67757;SDS011;54562;47.620;18.786;2023-05-09T14:03:19;5.60;;;1.80;;
67757;SDS011;54562;47.620;18.786;2023-05-09T14:06:26;5.30;;;1.90;;
67757;SDS011;54562;47.620;18.786;2023-05-09T14:09:33;5.50;;;2.00;;
67757;SDS011;54562;47.620;18.786;2023-05-09T14:12:42;5.10;;;1.90;;
67757;SDS011;54562;47.620;18.786;2023-05-09T14:15:49;4.00;;;1.70;;
67757;SDS011;54562;47.620;18.786;2023-05-09T14:18:56;4.30;;;1.80;;
67757;SDS011;54562;47.620;18.786;2023-05-09T14:22:02;4.40;;;1.70;;
67757;SDS011;54562;47.620;18.786;2023-05-09T14:25:10;6.30;;;1.80;;
67757;SDS011;54562;47.620;18.786;2023-05-09T14:28:16;5.90;;;2.00;;
67757;SDS011;54562;47.620;18.786;2023-05-09T14:31:22;4.10;;;1.90;;
67757;SDS011;54562;47.620;18.786;2023-05-09T14:34:28;4.90;;;1.80;;
67757;SDS011;54562;47.620;18.786;2023-05-09T14:37:35;6.30;;;2.00;;
67757;SDS011;54562;47.620;18.786;2023-05-09T14:40:43;4.70;;;2.10;;
67757;SDS011;54562;47.620;18.786;2023-05-09T14:43:49;5.00;;;1.80;;
67757;SDS011;54562;47.620;18.786;2023-05-09T14:46:57;4.50;;;2.00;;
67757;SDS011;54562;47.620;18.786;2023-05-09T14:50:04;6.20;;;2.00;;
67757;SDS011;54562;47.620;18.786;2023-05-09T14:53:13;4.00;;;1.80;;
67757;SDS011;54562;47.620;18.786;2023-05-09T14:56:19;6.00;;;2.00;;
67757;SDS011;54562;47.620;18.786;2023-05-09T14:59:26;4.30;;;1.80;;
67757;SDS011;54562;47.620;18.786;2023-05-09T15:02:32;4.40;;;1.90;;
67757;SDS011;54562;47.620;18.786;2023-05-09T15:05:39;5.70;;;2.10;;
67757;SDS011;54562;47.620;18.786;2023-05-09T15:08:45;4.80;;;1.70;;
67757;SDS011;54562;47.620;18.786;2023-05-09T15:11:51;4.40;;;1.70;;
67757;SDS011;54562;47.620;18.786;2023-05-09T15:15:01;4.30;;;1.90;;
67757;SDS011;54562;47.620;18.786;2023-05-09T15:18:17;4.30;;;1.90;;
67757;SDS011;54562;47.620;18.786;2023-05-09T15:21:25;5.10;;;1.70;;
67757;SDS011;54562;47.620;18.786;2023-05-09T15:24:31;4.90;;;1.90;;
67757;SDS011;54562;47.620;18.786;2023-05-09T15:27:38;5.40;;;1.80;;
67757;SDS011;54562;47.620;18.786;2023-05-09T15:30:44;4.50;;;1.80;;
67757;SDS011;54562;47.620;18.786;2023-05-09T15:33:51;4.70;;;1.70;;
67757;SDS011;54562;47.620;18.786;2023-05-09T15:36:57;5.20;;;1.80;;
67757;SDS011;54562;47.620;18.786;2023-05-09T15:40:04;4.00;;;1.60;;
67757;SDS011;54562;47.620;18.786;2023-05-09T15:43:11;4.20;;;1.70;;
67757;SDS011;54562;47.620;18.786;2023-05-09T15:46:18;5.40;;;1.70;;
67757;SDS011;54562;47.620;18.786;2023-05-09T15:49:25;3.80;;;1.70;;
67757;SDS011;54562;47.620;18.786;2023-05-09T15:52:32;5.30;;;1.80;;
67757;SDS011;54562;47.620;18.786;2023-05-09T15:55:38;3.80;;;1.70;;
67757;SDS011;54562;47.620;18.786;2023-05-09T15:58:45;4.20;;;1.70;;
67757;SDS011;54562;47.620;18.786;2023-05-09T16:01:52;4.30;;;1.70;;
67757;SDS011;54562;47.620;18.786;2023-05-09T16:04:58;3.80;;;1.70;;
67757;SDS011;54562;47.620;18.786;2023-05-09T16:08:05;4.30;;;1.90;;
67757;SDS011;54562;47.620;18.786;2023-05-09T16:11:11;5.30;;;2.00;;
67757;SDS011;54562;47.620;18.786;2023-05-09T16:14:17;6.10;;;1.90;;
67757;SDS011;54562;47.620;18.786;2023-05-09T16:17:24;4.40;;;1.80;;
67757;SDS011;54562;47.620;18.786;2023-05-09T16:20:30;5.20;;;1.80;;
67757;SDS011;54562;47.620;18.786;2023-05-09T16:23:36;3.90;;;1.70;;
67757;SDS011;54562;47.620;18.786;2023-05-09T16:26:42;5.30;;;1.80;;
67757;SDS011;54562;47.620;18.786;2023-05-09T16:29:48;4.70;;;1.90;;
67757;SDS011;54562;47.620;18.786;2023-05-09T16:32:55;4.40;;;1.80;;
67757;SDS011;54562;47.620;18.786;2023-05-09T16:36:01;4.10;;;1.80;;
67757;SDS011;54562;47.620;18.786;2023-05-09T16:39:07;5.00;;;1.70;;
67757;SDS011;54562;47.620;18.786;2023-05-09T16:42:14;7.80;;;2.30;;
67757;SDS011;54562;47.620;18.786;2023-05-09T16:45:20;9.10;;;2.00;;
67757;SDS011;54562;47.620;18.786;2023-05-09T16:48:27;5.70;;;2.00;;
67757;SDS011;54562;47.620;18.786;2023-05-09T16:51:34;4.10;;;1.90;;
67757;SDS011;54562;47.620;18.786;2023-05-09T16:54:41;5.00;;;1.90;;
67757;SDS011;54562;47.620;18.786;2023-05-09T16:57:47;4.40;;;1.80;;
67757;SDS011;54562;47.620;18.786;2023-05-09T17:00:53;4.00;;;1.60;;
67757;SDS011;54562;47.620;18.786;2023-05-09T17:04:02;4.60;;;2.00;;
67757;SDS011;54562;47.620;18.786;2023-05-09T17:07:09;3.70;;;1.70;;
67757;SDS011;54562;47.620;18.786;2023-05-09T17:10:16;5.10;;;1.70;;
67757;SDS011;54562;47.620;18.786;2023-05-09T17:13:23;5.20;;;1.90;;
67757;SDS011;54562;47.620;18.786;2023-05-09T17:16:30;6.30;;;2.10;;
67757;SDS011;54562;47.620;18.786;2023-05-09T17:19:39;5.30;;;2.10;;
67757;SDS011;54562;47.620;18.786;2023-05-09T17:22:46;4.70;;;1.80;;
67757;SDS011;54562;47.620;18.786;2023-05-09T17:25:53;5.80;;;2.10;;
67757;SDS011;54562;47.620;18.786;2023-05-09T17:28:59;4.50;;;2.00;;
67757;SDS011;54562;47.620;18.786;2023-05-09T17:32:07;4.40;;;1.90;;
67757;SDS011;54562;47.620;18.786;2023-05-09T17:35:13;4.50;;;1.90;;
67757;SDS011;54562;47.620;18.786;2023-05-09T17:38:21;4.50;;;1.90;;
67757;SDS011;54562;47.620;18.786;2023-05-09T17:41:28;5.20;;;2.10;;
67757;SDS011;54562;47.620;18.786;2023-05-09T17:44:34;6.30;;;2.10;;
67757;SDS011;54562;47.620;18.786;2023-05-09T17:47:41;7.90;;;2.20;;
67757;SDS011;54562;47.620;18.786;2023-05-09T17:50:48;4.60;;;2.00;;
67757;SDS011;54562;47.620;18.786;2023-05-09T17:53:55;4.90;;;2.10;;
67757;SDS011;54562;47.620;18.786;2023-05-09T17:57:01;7.10;;;2.20;;
67757;SDS011;54562;47.620;18.786;2023-05-09T18:00:08;6.20;;;2.00;;
67757;SDS011;54562;47.620;18.786;2023-05-09T18:03:16;4.60;;;2.10;;
67757;SDS011;54562;47.620;18.786;2023-05-09T18:06:25;5.70;;;2.10;;
67757;SDS011;54562;47.620;18.786;2023-05-09T18:09:32;4.70;;;2.00;;
67757;SDS011;54562;47.620;18.786;2023-05-09T18:12:40;5.00;;;2.00;;
67757;SDS011;54562;47.620;18.786;2023-05-09T18:15:47;5.60;;;2.00;;
67757;SDS011;54562;47.620;18.786;2023-05-09T18:18:57;4.80;;;2.00;;
67757;SDS011;54562;47.620;18.786;2023-05-09T18:22:05;6.90;;;2.00;;
67757;SDS011;54562;47.620;18.786;2023-05-09T18:25:12;4.70;;;2.00;;
67757;SDS011;54562;47.620;18.786;2023-05-09T18:28:19;4.80;;;2.20;;
67757;SDS011;54562;47.620;18.786;2023-05-09T18:31:27;6.00;;;2.00;;
67757;SDS011;54562;47.620;18.786;2023-05-09T18:34:38;4.10;;;2.00;;